Historyczne dane pomiarowe

Dodano dane terminowe – wersja testowa.

Dane z okresu 1951-2019

Wersja bazy: 1.34 [2019-03-16, lista zmian], aktualizacja planowana na 2019-04-15

Dane meteo z obszaru Polski uzyskane na podstawie danych udostępnionych przez Instytut Meteorologii i Gospodarki Wodnej – Państwowy Instytut Badawczy.

 

Wybierz Datę:    

       

TemperaturaWilgotnośćWiatrCiśnienieOpadyŚniegCzas trwania zjawisk
 Stacja t tx tn tng RH VA  wxwx mslp ppp RRR   cm mm wxwxwxwxwxwxwx
1987-08-14 15.0 22.6 7.1 3.9 79.3- 7.7 1.3---- 1.4------------
1987-08-13 11.6 15.5 6.5 2.9 90.5- 6.3 1.0---- 0.0------------
1987-08-12 13.4 18.0 10.6 9.4 81.0- 5.3 2.0---- 0.0------------
1987-08-11 13.2 16.2 11.8 9.5 93.8- 6.3 1.7---- 10.8------------
1987-08-10 14.9 18.0 10.8 8.9 95.3- 7.7 1.3---- 2.0------------
1987-08-09 16.6 22.9 8.7 4.9 79.3- 6.7 0.7---- 5.4------------
1987-08-08 15.6 21.0 10.4 8.0 72.0- 4.3 1.7---- 0.0------------
1987-08-07 13.8 20.0 8.7 5.0 73.5- 5.7 1.3---- 0.0------------
1987-08-06 12.3 18.0 6.6 3.4 79.0- 5.0 1.7---- 0.0------------
1987-08-05 12.6 18.9 5.6 2.7 79.0- 2.3 1.7---- 0.0------------
1987-08-04 14.1 19.3 9.7 6.3 83.5- 7.3 1.3---- 3.7------------
1987-08-03 14.2 18.7 11.7 9.4 80.0- 6.3 1.7---- 0.0------------
1987-08-02 15.0 19.3 12.5 10.9 81.0- 5.3 2.0---- 1.4------------
1987-08-01 15.4 21.3 10.1 6.9 86.8- 7.7 2.3---- 2.8------------
1987-07-31 15.8 20.4 13.7 10.2 93.8- 8.0 1.3---- 10.7------------
1987-07-30 17.6 24.1 10.2 7.4 70.5- 3.3 1.7---- 1.5------------
1987-07-29 14.9 19.6 11.1 7.9 76.8- 4.0 2.0---- 0.7------------
1987-07-28 15.2 21.0 10.5 6.9 79.8- 5.0 2.3---- 1.7------------
1987-07-27 11.9 16.8 6.4 3.4 84.8- 5.7 2.7---- 5.2------------
1987-07-26 15.0 19.0 12.1 11.3 86.5- 7.0 1.0---- 0.7------------
1987-07-25 18.2 23.0 13.1 10.0 81.0- 3.0 0.3---- 2.3------------
1987-07-24 20.6 26.2 14.7 11.2 83.8- 5.3 0.7---- 2.3------------
1987-07-23 22.3 28.0 14.7 11.4 73.5- 3.3 1.0---- 0.0------------
1987-07-22 20.1 25.7 14.0 11.4 79.8- 5.3 1.7---- 0.0------------
1987-07-21 19.1 25.5 10.9 8.0 78.5- 2.0 1.3---- 0.0------------
1987-07-20 19.2 23.8 17.8 15.8 90.5- 6.0 1.3---- 0.0------------
1987-07-19 20.7 25.2 16.2 14.1 79.8- 2.7 2.3---- 0.5------------
1987-07-18 21.0 24.8 17.9 16.3 86.3- 4.7 1.3---- 0.0------------
1987-07-17 21.4 29.6 15.3 12.8 72.3- 4.3 1.7---- 4.8------------
1987-07-16 18.8 26.3 9.1 5.9 66.3- 5.3 1.3---- 0.0------------
1987-07-15 15.6 23.4 6.1 3.0 67.5- 0.0 1.3---- 0.0------------
1987-07-14 14.8 20.3 9.1 5.2 77.0- 5.0 1.7---- 0.0------------
1987-07-13 16.5 21.0 11.3 8.4 83.3- 2.3 1.7---- 0.0------------
1987-07-12 19.3 27.3 14.9 13.5 89.0- 7.3 1.0---- 10.4------------
1987-07-11 15.2 22.1 7.6 3.9 78.8- 7.3 1.7---- 18.3------------
1987-07-10 14.8 19.4 10.1 8.0 72.8- 6.3 2.3---- 0.0------------
1987-07-09 17.7 25.4 14.6 14.3 94.5- 8.0 1.0---- 2.6------------
1987-07-08 22.4 31.4 13.4 8.3 64.5- 2.7 2.7---- 2.9------------
1987-07-07 20.6 28.2 10.0 5.9 62.5- 0.3 1.3---- 0.0------------
1987-07-06 18.0 25.2 6.9 2.5 65.5- 0.0 1.0---- 0.0------------
1987-07-05 17.8 23.4 12.8 10.9 67.8- 2.3 1.7---- 0.0------------
1987-07-04 17.7 23.4 11.8 8.0 70.3- 7.7 0.7---- 0.0------------
1987-07-03 18.7 24.4 11.4 6.9 69.3- 5.0 1.0---- 0.0------------
1987-07-02 20.3 26.4 17.6 17.4 74.8- 6.7 1.3---- 0.0------------
1987-07-01 26.0 32.8 19.6 15.9 73.8- 3.0 2.3---- 0.0------------
1987-06-30 24.4 29.5 19.2 15.8 78.3- 2.7 0.7---- 0.0------------
1987-06-29 18.1 25.3 7.1 3.4 78.5- 7.0 1.3---- 0.0------------
1987-06-28 17.7 24.2 11.6 7.9 80.5- 5.7 1.7---- 0.0------------
1987-06-27 19.3 23.2 15.5 12.9 79.3- 6.7 1.0---- 0.0------------
1987-06-26 16.5 22.7 8.0 4.9 76.3- 5.7 1.7---- 0.1------------
1987-06-25 13.3 18.2 10.5 9.9 96.0- 6.0 1.3---- 4.4------------
1987-06-24 16.8 21.3 11.0 6.9 74.3- 4.3 1.7---- 3.8------------
1987-06-23 16.7 20.4 13.3 9.4 85.5- 5.0 1.7---- 0.0------------
1987-06-22 19.3 25.1 10.5 6.9 69.8- 3.0 0.7---- 0.0------------
1987-06-21 18.0 25.4 9.4 5.5 70.5- 3.3 1.3---- 0.0------------
1987-06-20 16.0 23.5 7.5 4.1 68.3- 2.0 1.3---- 0.0------------
1987-06-19 12.4 16.6 5.8 1.9 83.5- 5.7 1.0---- 1.7------------
1987-06-18 11.0 17.6 4.2 0.4 79.8- 5.3 2.0---- 2.3------------
1987-06-17 12.6 15.7 10.8 8.4 76.3- 5.3 2.0---- 0.0------------
1987-06-16 14.5 25.8 10.8 10.1 89.3- 8.0 2.3---- 4.3------------
476.7 ms

 

Źródłem pochodzenia danych jest Instytut Meteorologii i Gospodarki Wodnej – Państwowy Instytut Badawczy. Dane Instytutu Meteorologii i Gospodarki Wodnej – Państwowego Instytutu Badawczego zostały przetworzone.

Dane źródłowe można odnaleźć na stronie https://dane.imgw.pl